KDEC/DEC METAR and TAF weather

Enter ICAO airport designator
Station Type Date Time Source
KDEC METAR 2020/04/08 19:54 UTC NOAA

KDEC 081954Z 20007KT 10SM CLR 28/07 A2965 RMK AO2 SLP034 T02780067


Station Type Date Time Source
KDEC Decoded METAR 2020/04/08 19:54 UTC NOAA

DECATUR AIRPORT, IL, United States (KDEC) 39-50N 88-52W 207M
Apr 08, 2020 - 03:54 PM EDT / 2020.04.08 1954 UTC
Wind: from the SSW (200 degrees) at 8 MPH (7 KT):0
Visibility: 10 mile(s):0
Sky conditions: clear
Temperature: 82.0 F (27.8 C)
Dew Point: 44.1 F (6.7 C)
Relative Humidity: 26%
Pressure (altimeter): 29.65 in. Hg (1004 hPa)
ob: KDEC 081954Z 20007KT 10SM CLR 28/07 A2965 RMK AO2 SLP034 T02780067
cycle: 20

Station Type Date Time Source
KDEC TAF 2020/04/08 18:52 UTC NOAA

TAF
AMD KDEC 081749Z 0818/0918 13005KT P6SM SKC
FM082200 23012KT P6SM VCTS SCT060CB BKN250
TEMPO 0823/0901 VRB20G30KT 2SM TSRAGS OVC050CB
FM090100 34016G25KT P6SM VCSH BKN060
FM090600 32013KT P6SM SKC
FM091600 29015G25KT P6SM SCT250

Example: see airport list